createdAt,value
2019-02-18T00:00:03.553Z,1026.5
2019-02-18T00:01:03.311Z,1026.4
2019-02-18T00:02:03.972Z,1026.5
2019-02-18T00:03:03.284Z,1026.4
2019-02-18T00:04:03.862Z,1026.5
2019-02-18T00:05:03.266Z,1026.5
2019-02-18T00:06:03.317Z,1026.5
2019-02-18T00:07:03.270Z,1026.4
2019-02-18T00:08:03.593Z,1026.4
2019-02-18T00:09:03.070Z,1026.4
2019-02-18T00:10:03.198Z,1026.5
2019-02-18T00:11:03.402Z,1026.3
2019-02-18T00:12:03.101Z,1026.4
2019-02-18T00:13:03.830Z,1026.4
2019-02-18T00:14:03.542Z,1026.3
2019-02-18T00:15:04.046Z,1026.2
2019-02-18T00:16:03.119Z,1026.3
2019-02-18T00:17:03.806Z,1026.4
2019-02-18T00:18:03.973Z,1026.3
2019-02-18T00:19:03.512Z,1026.3
2019-02-18T00:20:03.315Z,1026.3
2019-02-18T00:21:03.500Z,1026.4
2019-02-18T00:22:03.863Z,1026.3
2019-02-18T00:23:03.260Z,1026.4
2019-02-18T00:24:03.250Z,1026.3
2019-02-18T00:25:03.945Z,1026.3
2019-02-18T00:26:03.874Z,1026.3
2019-02-18T00:27:03.403Z,1026.3
2019-02-18T00:28:03.385Z,1026.4
2019-02-18T00:29:03.847Z,1026.4
2019-02-18T00:30:03.181Z,1026.5
2019-02-18T00:31:03.824Z,1026.5
2019-02-18T00:32:03.982Z,1026.4
2019-02-18T00:33:03.036Z,1026.5
2019-02-18T00:34:03.697Z,1026.4
2019-02-18T00:35:03.285Z,1026.4
2019-02-18T00:36:03.488Z,1026.4
2019-02-18T00:37:03.080Z,1026.4
2019-02-18T00:38:03.851Z,1026.5
2019-02-18T00:39:03.217Z,1026.4
2019-02-18T00:40:04.246Z,1026.4
2019-02-18T00:41:03.269Z,1026.4
2019-02-18T00:42:03.291Z,1026.4
2019-02-18T00:43:03.924Z,1026.5
2019-02-18T00:44:03.516Z,1026.4
2019-02-18T00:45:03.793Z,1026.4
2019-02-18T00:46:03.810Z,1026.4
2019-02-18T00:47:03.405Z,1026.4
2019-02-18T00:48:03.575Z,1026.4
2019-02-18T00:49:03.271Z,1026.4
2019-02-18T00:50:03.670Z,1026.5
2019-02-18T00:51:03.592Z,1026.5
2019-02-18T00:52:03.996Z,1026.4
2019-02-18T00:53:04.534Z,1026.4
2019-02-18T00:54:04.050Z,1026.3
2019-02-18T00:55:03.371Z,1026.3
2019-02-18T00:56:03.716Z,1026.4
2019-02-18T00:57:03.126Z,1026.4
2019-02-18T00:58:03.793Z,1026.4
2019-02-18T00:59:03.749Z,1026.5
2019-02-18T01:00:03.392Z,1026.4
2019-02-18T01:01:03.644Z,1026.4
2019-02-18T01:02:02.793Z,1026.5
2019-02-18T01:03:03.604Z,1026.4
2019-02-18T01:04:03.102Z,1026.5
2019-02-18T01:05:03.709Z,1026.5
2019-02-18T01:06:02.926Z,1026.4
2019-02-18T01:07:03.405Z,1026.4
2019-02-18T01:08:03.880Z,1026.4
2019-02-18T01:09:03.471Z,1026.4
2019-02-18T01:10:03.292Z,1026.4
2019-02-18T01:11:03.184Z,1026.4
2019-02-18T01:12:03.682Z,1026.4
2019-02-18T01:13:03.189Z,1026.4
2019-02-18T01:14:03.748Z,1026.4
2019-02-18T01:15:03.339Z,1026.4
2019-02-18T01:16:03.894Z,1026.4
2019-02-18T01:17:02.949Z,1026.4
2019-02-18T01:18:03.986Z,1026.4
2019-02-18T01:19:03.240Z,1026.4
2019-02-18T01:20:03.551Z,1026.4
2019-02-18T01:21:03.925Z,1026.4
2019-02-18T01:22:03.672Z,1026.4
2019-02-18T01:23:03.919Z,1026.4
2019-02-18T01:24:03.426Z,1026.4
2019-02-18T01:25:03.739Z,1026.4
2019-02-18T01:26:03.214Z,1026.4
2019-02-18T01:27:03.521Z,1026.3
2019-02-18T01:28:04.119Z,1026.3
2019-02-18T01:29:03.823Z,1026.4
2019-02-18T01:30:03.725Z,1026.3
2019-02-18T01:31:03.127Z,1026.4
2019-02-18T01:32:03.543Z,1026.3
2019-02-18T01:33:03.683Z,1026.3
2019-02-18T01:34:03.232Z,1026.3
2019-02-18T01:35:03.257Z,1026.3
2019-02-18T01:36:03.546Z,1026.2
2019-02-18T01:37:03.951Z,1026.2
2019-02-18T01:38:03.407Z,1026.2
2019-02-18T01:39:03.044Z,1026.2
2019-02-18T01:40:03.495Z,1026.1
2019-02-18T01:41:03.060Z,1026.1
2019-02-18T01:42:03.334Z,1026.1
2019-02-18T01:43:02.950Z,1026.3
2019-02-18T01:44:03.816Z,1026.1
2019-02-18T01:45:04.044Z,1026.3
2019-02-18T01:46:03.071Z,1026.1
2019-02-18T01:47:03.671Z,1026.1
2019-02-18T01:48:03.222Z,1026.3
2019-02-18T01:49:03.666Z,1026.3
2019-02-18T01:50:03.057Z,1026.1
2019-02-18T01:51:03.120Z,1026.1
2019-02-18T01:52:03.538Z,1026.1
2019-02-18T01:53:03.090Z,1026.1
2019-02-18T01:54:03.869Z,1026
2019-02-18T01:55:03.312Z,1026
2019-02-18T01:56:03.833Z,1026.1
2019-02-18T01:57:03.059Z,1025.9
2019-02-18T01:58:03.682Z,1026.1
2019-02-18T01:59:03.940Z,1026
2019-02-18T02:00:03.647Z,1026
2019-02-18T02:01:02.891Z,1026
2019-02-18T02:02:03.354Z,1025.9
2019-02-18T02:03:03.723Z,1025.9
2019-02-18T02:04:03.593Z,1025.9
2019-02-18T02:05:03.562Z,1025.9
2019-02-18T02:06:03.838Z,1026
2019-02-18T02:07:03.378Z,1025.9
2019-02-18T02:08:03.282Z,1025.9
2019-02-18T02:09:03.692Z,1025.9
2019-02-18T02:10:03.896Z,1025.9
2019-02-18T02:11:03.155Z,1025.9
2019-02-18T02:12:03.451Z,1025.9
2019-02-18T02:13:02.958Z,1025.8
2019-02-18T02:14:03.215Z,1025.9
2019-02-18T02:15:03.296Z,1025.9
2019-02-18T02:16:03.458Z,1025.9
2019-02-18T02:17:04.096Z,1025.8
2019-02-18T02:18:03.424Z,1025.8
2019-02-18T02:19:03.088Z,1025.9
2019-02-18T02:20:03.283Z,1025.8
2019-02-18T02:21:03.723Z,1025.8
2019-02-18T02:22:03.296Z,1025.9
2019-02-18T02:23:03.275Z,1025.8
2019-02-18T02:24:03.784Z,1025.8
2019-02-18T02:25:03.553Z,1025.6
2019-02-18T02:26:04.095Z,1025.6
2019-02-18T02:27:03.497Z,1025.6
2019-02-18T02:28:03.900Z,1025.7
2019-02-18T02:29:03.366Z,1025.6
2019-02-18T02:30:03.820Z,1025.7
2019-02-18T02:31:03.440Z,1025.7
2019-02-18T02:32:03.356Z,1025.7
2019-02-18T02:33:03.666Z,1025.7
2019-02-18T02:34:03.404Z,1025.6
2019-02-18T02:35:03.874Z,1025.7
2019-02-18T02:36:03.737Z,1025.8
2019-02-18T02:37:03.419Z,1025.8
2019-02-18T02:38:08.612Z,1025.8
2019-02-18T02:39:03.024Z,1025.7
2019-02-18T02:40:04.144Z,1025.7
2019-02-18T02:41:03.163Z,1025.8
2019-02-18T02:42:03.688Z,1025.7
2019-02-18T02:43:03.208Z,1025.6
2019-02-18T02:44:03.628Z,1025.7
2019-02-18T02:45:04.073Z,1025.7
2019-02-18T02:46:03.585Z,1025.7
2019-02-18T02:47:03.809Z,1025.7
2019-02-18T02:48:03.240Z,1025.7
2019-02-18T02:49:03.667Z,1025.7
2019-02-18T02:50:03.877Z,1025.7
2019-02-18T02:51:03.336Z,1025.7
2019-02-18T02:52:03.769Z,1025.7
2019-02-18T02:53:03.458Z,1025.8
2019-02-18T02:54:03.894Z,1025.8
2019-02-18T02:55:03.386Z,1025.7
2019-02-18T02:56:03.766Z,1025.6
2019-02-18T02:57:03.320Z,1025.7
2019-02-18T02:58:03.891Z,1025.6
2019-02-18T02:59:03.207Z,1025.6
2019-02-18T03:00:04.054Z,1025.7
2019-02-18T03:01:03.207Z,1025.6
2019-02-18T03:02:03.663Z,1025.7
2019-02-18T03:03:03.162Z,1025.7
2019-02-18T03:04:03.576Z,1025.5
2019-02-18T03:05:03.195Z,1025.5
2019-02-18T03:06:03.594Z,1025.6
2019-02-18T03:07:03.671Z,1025.5
2019-02-18T03:08:03.138Z,1025.6
2019-02-18T03:09:03.675Z,1025.6
2019-02-18T03:10:02.920Z,1025.6
2019-02-18T03:11:04.079Z,1025.6
2019-02-18T03:12:03.784Z,1025.6
2019-02-18T03:13:03.509Z,1025.5
2019-02-18T03:14:03.782Z,1025.5
2019-02-18T03:15:03.561Z,1025.6
2019-02-18T03:16:03.912Z,1025.6
2019-02-18T03:17:03.509Z,1025.7
2019-02-18T03:18:03.713Z,1025.6
2019-02-18T03:19:03.105Z,1025.6
2019-02-18T03:20:03.404Z,1025.7
2019-02-18T03:21:04.089Z,1025.7
2019-02-18T03:22:03.291Z,1025.6
2019-02-18T03:23:03.794Z,1025.6
2019-02-18T03:24:03.338Z,1025.6
2019-02-18T03:25:03.796Z,1025.7
2019-02-18T03:26:03.869Z,1025.7
2019-02-18T03:27:03.416Z,1025.6
2019-02-18T03:28:03.665Z,1025.5
2019-02-18T03:29:03.278Z,1025.5
2019-02-18T03:30:03.295Z,1025.6
2019-02-18T03:31:03.403Z,1025.6
2019-02-18T03:32:03.450Z,1025.6
2019-02-18T03:33:03.244Z,1025.6
2019-02-18T03:34:03.853Z,1025.6
2019-02-18T03:35:03.261Z,1025.5
2019-02-18T03:36:04.414Z,1025.5
2019-02-18T03:37:03.255Z,1025.5
2019-02-18T03:38:03.652Z,1025.6
2019-02-18T03:39:03.219Z,1025.6
2019-02-18T03:40:03.433Z,1025.5
2019-02-18T03:41:04.106Z,1025.6
2019-02-18T03:42:04.204Z,1025.6
2019-02-18T03:43:03.489Z,1025.6
2019-02-18T03:44:03.291Z,1025.6
2019-02-18T03:45:03.747Z,1025.6
2019-02-18T03:46:03.167Z,1025.6
2019-02-18T03:47:03.521Z,1025.6
2019-02-18T03:48:02.847Z,1025.5
2019-02-18T03:49:03.192Z,1025.6
2019-02-18T03:50:02.860Z,1025.6
2019-02-18T03:51:03.793Z,1025.5
2019-02-18T03:52:03.951Z,1025.6
2019-02-18T03:53:03.660Z,1025.6
2019-02-18T03:54:03.012Z,1025.6
2019-02-18T03:55:03.071Z,1025.6
2019-02-18T03:56:03.398Z,1025.7
2019-02-18T03:57:02.935Z,1025.6
2019-02-18T03:58:03.639Z,1025.6
2019-02-18T03:59:03.072Z,1025.6
2019-02-18T04:00:03.627Z,1025.7
2019-02-18T04:01:03.081Z,1025.7
2019-02-18T04:02:03.467Z,1025.6
2019-02-18T04:03:03.834Z,1025.8
2019-02-18T04:04:03.508Z,1025.8
2019-02-18T04:05:03.585Z,1025.9
2019-02-18T04:06:03.173Z,1025.8
2019-02-18T04:07:03.899Z,1025.7
2019-02-18T04:08:03.453Z,1025.8
2019-02-18T04:09:03.597Z,1025.7
2019-02-18T04:10:03.198Z,1025.7
2019-02-18T04:11:03.312Z,1025.7
2019-02-18T04:12:03.096Z,1025.6
2019-02-18T04:13:03.275Z,1025.7
2019-02-18T04:14:03.202Z,1025.7
2019-02-18T04:15:03.623Z,1025.7
2019-02-18T04:16:02.945Z,1025.7
2019-02-18T04:17:03.834Z,1025.7
2019-02-18T04:18:02.988Z,1025.7
2019-02-18T04:19:03.761Z,1025.8
2019-02-18T04:20:03.949Z,1025.7
2019-02-18T04:21:03.539Z,1025.7
2019-02-18T04:22:02.866Z,1025.6
2019-02-18T04:23:03.466Z,1025.7
2019-02-18T04:24:03.185Z,1025.8
2019-02-18T04:25:03.455Z,1025.7
2019-02-18T04:26:02.967Z,1025.7
2019-02-18T04:27:03.277Z,1025.8
2019-02-18T04:28:03.830Z,1025.8
2019-02-18T04:29:02.957Z,1025.8
2019-02-18T04:30:03.590Z,1025.8
2019-02-18T04:31:03.424Z,1025.8
2019-02-18T04:32:03.576Z,1025.7
2019-02-18T04:33:03.118Z,1025.8
2019-02-18T04:34:03.567Z,1025.8
2019-02-18T04:35:03.041Z,1025.8
2019-02-18T04:36:03.792Z,1025.8
2019-02-18T04:37:03.757Z,1025.8
2019-02-18T04:38:03.366Z,1025.7
2019-02-18T04:39:03.569Z,1025.7
2019-02-18T04:40:03.238Z,1025.7
2019-02-18T04:41:03.575Z,1025.7
2019-02-18T04:42:03.041Z,1025.7
2019-02-18T04:43:03.584Z,1025.6
2019-02-18T04:44:03.185Z,1025.7
2019-02-18T04:45:03.672Z,1025.6
2019-02-18T04:46:03.258Z,1025.8
2019-02-18T04:47:03.741Z,1025.7
2019-02-18T04:48:03.873Z,1025.6
2019-02-18T04:49:03.158Z,1025.6
2019-02-18T04:50:03.828Z,1025.7
2019-02-18T04:51:03.269Z,1025.6
2019-02-18T04:52:03.792Z,1025.6
2019-02-18T04:53:04.065Z,1025.6
2019-02-18T04:54:03.379Z,1025.6
2019-02-18T04:55:03.942Z,1025.7
2019-02-18T04:56:03.395Z,1025.7
2019-02-18T04:57:02.999Z,1025.7
2019-02-18T04:58:06.694Z,1025.6
2019-02-18T04:59:03.978Z,1025.6
2019-02-18T05:00:03.436Z,1025.8
2019-02-18T05:01:03.735Z,1025.5
2019-02-18T05:02:02.961Z,1025.5
2019-02-18T05:03:03.467Z,1025.7
2019-02-18T05:04:03.343Z,1025.5
2019-02-18T05:05:03.760Z,1025.5
2019-02-18T05:06:02.983Z,1025.7
2019-02-18T05:07:03.369Z,1025.7
2019-02-18T05:08:03.664Z,1025.8
2019-02-18T05:09:06.256Z,1025.8
2019-02-18T05:10:03.913Z,1025.7
2019-02-18T05:11:03.300Z,1025.7
2019-02-18T05:12:03.545Z,1025.7
2019-02-18T05:13:03.176Z,1025.7
2019-02-18T05:14:03.732Z,1025.7
2019-02-18T05:15:03.939Z,1025.7
2019-02-18T05:16:03.443Z,1025.7
2019-02-18T05:17:03.934Z,1025.7
2019-02-18T05:18:03.394Z,1025.7
2019-02-18T05:19:03.848Z,1025.7
2019-02-18T05:20:03.389Z,1025.7
2019-02-18T05:21:03.219Z,1025.7
2019-02-18T05:22:03.526Z,1025.7
2019-02-18T05:23:02.939Z,1025.7
2019-02-18T05:24:03.327Z,1025.7
2019-02-18T05:25:03.986Z,1025.8
2019-02-18T05:26:02.900Z,1025.7
2019-02-18T05:27:03.720Z,1025.7
2019-02-18T05:28:03.298Z,1025.7
2019-02-18T05:29:03.642Z,1025.7
2019-02-18T05:30:02.999Z,1025.8
2019-02-18T05:31:03.444Z,1025.7
2019-02-18T05:32:03.629Z,1025.7
2019-02-18T05:33:03.251Z,1025.8
2019-02-18T05:34:03.186Z,1025.8
2019-02-18T05:35:03.532Z,1025.8
2019-02-18T05:36:02.995Z,1025.8
2019-02-18T05:37:03.237Z,1025.8
2019-02-18T05:38:02.890Z,1025.7
2019-02-18T05:39:03.183Z,1025.7
2019-02-18T05:40:03.800Z,1025.9
2019-02-18T05:41:03.378Z,1025.8
2019-02-18T05:42:03.817Z,1025.7
2019-02-18T05:43:03.263Z,1025.7
2019-02-18T05:44:03.411Z,1025.9
2019-02-18T05:45:03.993Z,1025.8
2019-02-18T05:46:03.625Z,1025.8
2019-02-18T05:47:03.750Z,1025.8
2019-02-18T05:48:03.470Z,1025.8
2019-02-18T05:49:03.929Z,1025.7
2019-02-18T05:50:03.481Z,1025.9
2019-02-18T05:51:03.886Z,1025.8
2019-02-18T05:52:02.933Z,1025.8
2019-02-18T05:53:03.869Z,1025.7
2019-02-18T05:54:03.188Z,1025.8
2019-02-18T05:55:03.811Z,1025.7
2019-02-18T05:56:03.196Z,1025.8
2019-02-18T05:57:03.489Z,1025.7
2019-02-18T05:58:03.085Z,1025.7
2019-02-18T05:59:03.567Z,1025.8
2019-02-18T06:00:03.308Z,1025.7
2019-02-18T06:01:03.730Z,1025.8
2019-02-18T06:02:03.211Z,1025.7
2019-02-18T06:03:03.582Z,1025.7
2019-02-18T06:04:03.894Z,1025.7
2019-02-18T06:05:03.118Z,1025.7
2019-02-18T06:06:03.942Z,1025.7
2019-02-18T06:07:03.270Z,1025.7
2019-02-18T06:08:03.898Z,1025.8
2019-02-18T06:09:03.070Z,1025.5
2019-02-18T06:10:03.753Z,1025.8
2019-02-18T06:11:03.437Z,1025.8
2019-02-18T06:12:03.637Z,1025.7
2019-02-18T06:13:03.149Z,1025.8
2019-02-18T06:14:03.341Z,1025.7
2019-02-18T06:15:03.749Z,1025.6
2019-02-18T06:16:02.896Z,1025.7
2019-02-18T06:17:03.295Z,1025.7
2019-02-18T06:18:02.922Z,1025.7
2019-02-18T06:19:03.290Z,1025.8
2019-02-18T06:20:03.998Z,1025.8
2019-02-18T06:21:03.352Z,1025.7
2019-02-18T06:22:03.658Z,1025.7
2019-02-18T06:23:03.707Z,1025.7
2019-02-18T06:24:03.572Z,1025.8
2019-02-18T06:25:03.194Z,1025.9
2019-02-18T06:26:03.558Z,1025.8
2019-02-18T06:27:03.038Z,1025.8
2019-02-18T06:28:05.335Z,1025.8
2019-02-18T06:29:04.029Z,1025.8
2019-02-18T06:30:03.500Z,1025.8
2019-02-18T06:31:03.775Z,1025.9
2019-02-18T06:32:03.456Z,1025.8
2019-02-18T06:33:04.089Z,1025.8
2019-02-18T06:34:03.248Z,1025.8
2019-02-18T06:35:03.774Z,1025.9
2019-02-18T06:36:03.986Z,1025.9
2019-02-18T06:37:03.554Z,1025.8
2019-02-18T06:38:03.975Z,1025.9
2019-02-18T06:39:03.524Z,1025.9
2019-02-18T06:40:04.078Z,1025.9
2019-02-18T06:41:03.323Z,1025.9
2019-02-18T06:42:03.664Z,1025.9
2019-02-18T06:43:03.348Z,1025.9
2019-02-18T06:44:04.000Z,1025.9
2019-02-18T06:45:03.695Z,1025.9
2019-02-18T06:46:03.901Z,1025.9
2019-02-18T06:47:03.344Z,1025.9
2019-02-18T06:48:04.067Z,1026
2019-02-18T06:49:03.105Z,1025.9
2019-02-18T06:50:04.185Z,1025.9
2019-02-18T06:51:03.133Z,1026
2019-02-18T06:52:03.664Z,1025.9
2019-02-18T06:53:02.988Z,1026
2019-02-18T06:54:03.551Z,1025.9
2019-02-18T06:55:03.816Z,1025.9
2019-02-18T06:56:03.412Z,1025.9
2019-02-18T06:57:03.108Z,1025.9
2019-02-18T06:58:03.437Z,1025.9
2019-02-18T06:59:03.033Z,1025.8
2019-02-18T07:00:03.508Z,1025.8
2019-02-18T07:01:03.973Z,1025.8
2019-02-18T07:02:03.363Z,1025.8
2019-02-18T07:03:03.797Z,1025.8
2019-02-18T07:04:03.220Z,1025.8
2019-02-18T07:05:03.416Z,1025.7
2019-02-18T07:06:02.981Z,1025.7
2019-02-18T07:07:03.194Z,1025.8
2019-02-18T07:08:03.657Z,1025.8
2019-02-18T07:09:04.089Z,1025.7
2019-02-18T07:10:03.842Z,1025.9
2019-02-18T07:11:03.227Z,1025.7
2019-02-18T07:12:03.295Z,1025.7
2019-02-18T07:13:02.826Z,1025.9
2019-02-18T07:14:03.617Z,1025.8
2019-02-18T07:15:03.819Z,1025.8
2019-02-18T07:16:03.107Z,1025.7
2019-02-18T07:17:03.738Z,1025.7
2019-02-18T07:18:03.116Z,1025.7
2019-02-18T07:19:03.468Z,1025.7
2019-02-18T07:20:02.981Z,1025.7
2019-02-18T07:21:03.885Z,1025.5
2019-02-18T07:22:03.083Z,1025.6
2019-02-18T07:23:03.921Z,1025.4
2019-02-18T07:24:03.200Z,1025.4
2019-02-18T07:25:03.638Z,1025.3
2019-02-18T07:26:03.180Z,1025.3
2019-02-18T07:27:04.443Z,1025.3
2019-02-18T07:28:03.001Z,1025.2
2019-02-18T07:29:03.772Z,1025.2
2019-02-18T07:30:02.905Z,1025
2019-02-18T07:31:03.181Z,1024.9
2019-02-18T07:32:03.691Z,1024.9
2019-02-18T07:33:03.027Z,1025
2019-02-18T07:34:03.513Z,1024.9
2019-02-18T07:35:03.315Z,1024.9
2019-02-18T07:36:04.009Z,1024.8
2019-02-18T07:37:03.273Z,1024.8
2019-02-18T07:38:03.442Z,1024.7
2019-02-18T07:39:03.381Z,1024.6
2019-02-18T07:40:03.854Z,1024.6
2019-02-18T07:41:03.462Z,1024.4
2019-02-18T07:42:03.806Z,1024.4
2019-02-18T07:43:03.078Z,1024.4
2019-02-18T07:44:03.404Z,1024.4
2019-02-18T07:45:03.084Z,1024.4
2019-02-18T07:46:03.326Z,1024.4
2019-02-18T07:47:03.859Z,1024.4
2019-02-18T07:48:03.495Z,1024.4
2019-02-18T07:49:02.732Z,1024.3
2019-02-18T07:50:03.967Z,1024.3
2019-02-18T07:51:03.896Z,1024.3
2019-02-18T07:52:03.367Z,1024.2
2019-02-18T07:53:03.966Z,1024.1
2019-02-18T07:54:03.143Z,1024.2
2019-02-18T07:55:03.847Z,1024.2
2019-02-18T07:56:03.426Z,1024
2019-02-18T07:57:03.857Z,1024
2019-02-18T07:58:03.136Z,1024
2019-02-18T07:59:03.900Z,1024
2019-02-18T08:00:03.273Z,1023.9
2019-02-18T08:01:02.970Z,1023.9
2019-02-18T08:02:03.077Z,1024
2019-02-18T08:03:03.494Z,1023.8
2019-02-18T08:04:02.756Z,1023.7
2019-02-18T08:05:03.902Z,1023.8
2019-02-18T08:06:03.717Z,1023.7
2019-02-18T08:07:03.555Z,1023.7
2019-02-18T08:08:03.611Z,1023.6
2019-02-18T08:09:03.328Z,1023.5
2019-02-18T08:10:12.941Z,1023.6
2019-02-18T08:11:03.425Z,1023.6
2019-02-18T08:12:03.716Z,1023.5
2019-02-18T08:13:03.166Z,1023.6
2019-02-18T08:14:03.275Z,1023.6
2019-02-18T08:15:03.985Z,1023.6
2019-02-18T08:16:03.582Z,1023.6
2019-02-18T08:17:03.960Z,1023.6
2019-02-18T08:18:03.423Z,1023.4
2019-02-18T08:19:04.019Z,1023.4
2019-02-18T08:20:03.659Z,1023.5
2019-02-18T08:21:03.147Z,1023.4
2019-02-18T08:22:03.128Z,1023.4
2019-02-18T08:23:03.646Z,1023.5
2019-02-18T08:24:03.349Z,1023.5
2019-02-18T08:25:03.629Z,1023.5
2019-02-18T08:26:02.934Z,1023.4
2019-02-18T08:27:03.981Z,1023.4
2019-02-18T08:28:03.123Z,1023.6
2019-02-18T08:29:03.128Z,1023.5
2019-02-18T08:30:04.069Z,1023.5
2019-02-18T08:31:03.276Z,1023.4
2019-02-18T08:32:03.888Z,1023.4
2019-02-18T08:33:03.244Z,1023.5
2019-02-18T08:34:03.710Z,1023.6
2019-02-18T08:35:03.092Z,1023.5
2019-02-18T08:36:03.372Z,1023.4
2019-02-18T08:37:03.084Z,1023.5
2019-02-18T08:38:03.775Z,1023.4
2019-02-18T08:39:02.998Z,1023.5
2019-02-18T08:40:03.310Z,1023.3
2019-02-18T08:41:03.997Z,1023.3
2019-02-18T08:42:03.116Z,1023.2
2019-02-18T08:43:02.827Z,1023.2
2019-02-18T08:44:03.180Z,1023.2
2019-02-18T08:45:02.807Z,1023.3
2019-02-18T08:46:03.311Z,1023.4
2019-02-18T08:47:03.683Z,1023.4
2019-02-18T08:48:03.453Z,1023.4
2019-02-18T08:49:03.988Z,1023.4
2019-02-18T08:50:03.699Z,1023.5
2019-02-18T08:51:03.581Z,1023.5
2019-02-18T08:52:03.238Z,1023.5
2019-02-18T08:53:03.727Z,1023.4
2019-02-18T08:54:03.814Z,1023.4
2019-02-18T08:55:03.883Z,1023.3
2019-02-18T08:56:03.975Z,1023.3
2019-02-18T08:57:03.689Z,1023.3
2019-02-18T08:58:03.777Z,1023.2
2019-02-18T08:59:03.030Z,1023.3
2019-02-18T09:00:03.613Z,1023.2
2019-02-18T09:01:03.991Z,1023.2
2019-02-18T09:02:03.318Z,1023.2
2019-02-18T09:03:03.477Z,1023.2
2019-02-18T09:04:03.296Z,1023.2
2019-02-18T09:05:03.961Z,1023
2019-02-18T09:06:03.027Z,1023.2
2019-02-18T09:07:03.431Z,1023.1
2019-02-18T09:08:03.889Z,1023.1
2019-02-18T09:09:03.078Z,1023.2
2019-02-18T09:10:03.822Z,1023.2
2019-02-18T09:11:03.220Z,1023
2019-02-18T09:12:03.861Z,1023.2
2019-02-18T09:13:03.774Z,1023
2019-02-18T09:14:03.657Z,1023
2019-02-18T09:15:04.123Z,1022.9
2019-02-18T09:16:03.523Z,1022.8
2019-02-18T09:17:03.829Z,1022.8
2019-02-18T09:18:03.284Z,1022.9
2019-02-18T09:19:03.544Z,1022.8
2019-02-18T09:20:03.146Z,1023
2019-02-18T09:21:03.503Z,1023.1
2019-02-18T09:22:03.110Z,1023.1
2019-02-18T09:23:03.527Z,1023.2
2019-02-18T09:24:02.910Z,1023.2
2019-02-18T09:25:03.703Z,1023.3
2019-02-18T09:26:03.119Z,1023.3
2019-02-18T09:27:04.214Z,1023.3
2019-02-18T09:28:03.050Z,1023.2
2019-02-18T09:29:03.632Z,1023.2
2019-02-18T09:30:04.084Z,1023.2
2019-02-18T09:31:03.347Z,1023.2
2019-02-18T09:32:03.869Z,1023.3
2019-02-18T09:33:03.244Z,1023.3
2019-02-18T09:34:03.259Z,1023.2
2019-02-18T09:35:03.551Z,1023.3
2019-02-18T09:36:03.484Z,1023.2
2019-02-18T09:37:03.171Z,1023.2
2019-02-18T09:38:03.861Z,1023.1
2019-02-18T09:39:03.385Z,1023.1
2019-02-18T09:40:03.630Z,1023.1
2019-02-18T09:41:03.510Z,1023.2
2019-02-18T09:42:03.133Z,1023.2
2019-02-18T09:43:03.589Z,1023
2019-02-18T09:44:04.020Z,1023
2019-02-18T09:45:03.434Z,1022.9
2019-02-18T09:46:02.964Z,1022.9
2019-02-18T09:47:03.482Z,1022.9
2019-02-18T09:48:03.013Z,1023
2019-02-18T09:49:03.437Z,1022.9
2019-02-18T09:50:03.855Z,1022.9
2019-02-18T09:51:03.193Z,1022.8
2019-02-18T09:52:03.496Z,1022.7
2019-02-18T09:53:03.053Z,1022.7
2019-02-18T09:54:04.027Z,1022.6
2019-02-18T09:55:03.075Z,1022.6
2019-02-18T09:56:03.555Z,1022.4
2019-02-18T09:57:03.100Z,1022.4
2019-02-18T09:58:03.428Z,1022.4
2019-02-18T09:59:03.966Z,1022.4
2019-02-18T10:00:03.432Z,1022.1
2019-02-18T10:01:03.474Z,1022.1
2019-02-18T10:02:03.067Z,1022
2019-02-18T10:03:03.210Z,1022
2019-02-18T10:04:03.917Z,1022
2019-02-18T10:05:03.356Z,1021.9
2019-02-18T10:06:03.716Z,1022
2019-02-18T10:07:03.145Z,1022
2019-02-18T10:08:03.693Z,1021.9
2019-02-18T10:09:04.047Z,1022.1
2019-02-18T10:10:05.223Z,1021.9
2019-02-18T10:11:03.059Z,1021.8
2019-02-18T10:12:03.302Z,1022
2019-02-18T10:13:03.841Z,1021.9
2019-02-18T10:14:03.308Z,1021.9
2019-02-18T10:15:03.626Z,1021.9
2019-02-18T10:16:03.006Z,1021.7
2019-02-18T10:17:03.426Z,1021.8
2019-02-18T10:18:03.009Z,1021.7
2019-02-18T10:19:03.562Z,1021.8
2019-02-18T10:20:03.987Z,1021.7
2019-02-18T10:21:03.219Z,1021.7
2019-02-18T10:22:03.704Z,1021.7
2019-02-18T10:23:03.184Z,1021.7
2019-02-18T10:24:03.531Z,1021.7
2019-02-18T10:25:04.051Z,1021.8
2019-02-18T10:26:03.312Z,1021.7
2019-02-18T10:27:03.585Z,1021.7
2019-02-18T10:28:03.276Z,1021.7
2019-02-18T10:29:03.371Z,1021.8
2019-02-18T10:30:04.539Z,1021.6
2019-02-18T10:31:03.255Z,1021.7
2019-02-18T10:32:03.890Z,1021.7
2019-02-18T10:33:03.223Z,1021.8
2019-02-18T10:34:03.578Z,1021.9
2019-02-18T10:35:03.264Z,1021.8
2019-02-18T10:36:03.910Z,1021.7
2019-02-18T10:37:03.446Z,1021.7
2019-02-18T10:38:03.690Z,1021.7
2019-02-18T10:39:03.258Z,1021.7
2019-02-18T10:40:03.575Z,1021.5
2019-02-18T10:41:07.639Z,1021.6
2019-02-18T10:42:03.341Z,1021.5
2019-02-18T10:43:03.707Z,1021.5
2019-02-18T10:44:03.382Z,1021.5
2019-02-18T10:45:03.954Z,1021.5
2019-02-18T10:46:03.100Z,1021.4
2019-02-18T10:47:05.990Z,1021.4
2019-02-18T10:48:04.101Z,1021.5
2019-02-18T10:49:03.255Z,1021.5
2019-02-18T10:50:03.854Z,1021.5
2019-02-18T10:51:03.276Z,1021.3
2019-02-18T10:52:03.773Z,1021.4
2019-02-18T10:53:03.487Z,1021.3
2019-02-18T10:54:03.974Z,1021.3
2019-02-18T10:55:04.009Z,1021.2
2019-02-18T10:56:03.330Z,1021.2
2019-02-18T10:57:03.526Z,1021.1
2019-02-18T10:58:02.960Z,1021.2
2019-02-18T10:59:03.466Z,1021.2
2019-02-18T11:00:04.091Z,1021.1
2019-02-18T11:01:03.334Z,1021.1
2019-02-18T11:02:04.876Z,1021
2019-02-18T11:03:03.735Z,1021.1
2019-02-18T11:04:04.075Z,1021
2019-02-18T11:05:03.563Z,1021
2019-02-18T11:06:03.847Z,1021
2019-02-18T11:07:03.312Z,1021
2019-02-18T11:08:03.959Z,1021
2019-02-18T11:09:03.622Z,1020.8
2019-02-18T11:10:03.950Z,1020.8
2019-02-18T11:11:03.341Z,1020.7
2019-02-18T11:12:03.766Z,1020.7
2019-02-18T11:13:03.181Z,1020.7
2019-02-18T11:14:03.043Z,1020.7
2019-02-18T11:15:03.502Z,1020.7
2019-02-18T11:16:03.964Z,1020.7
2019-02-18T11:17:03.314Z,1020.7
2019-02-18T11:18:03.826Z,1020.7
2019-02-18T11:19:03.994Z,1020.6
2019-02-18T11:20:03.681Z,1020.6
2019-02-18T11:21:03.098Z,1020.7
2019-02-18T11:22:03.628Z,1020.6
2019-02-18T11:23:03.882Z,1020.6
2019-02-18T11:24:03.451Z,1020.5
2019-02-18T11:25:03.721Z,1020.5
2019-02-18T11:26:02.932Z,1020.4
2019-02-18T11:27:03.218Z,1020.3
2019-02-18T11:28:03.377Z,1020.5
2019-02-18T11:29:03.567Z,1020.4
2019-02-18T11:30:03.791Z,1020.5
2019-02-18T11:31:03.666Z,1020.7
2019-02-18T11:32:03.217Z,1020.6
2019-02-18T11:33:03.129Z,1020.5
2019-02-18T11:34:03.857Z,1020.6
2019-02-18T11:35:03.103Z,1020.5
2019-02-18T11:36:03.359Z,1020.5
2019-02-18T11:37:03.062Z,1020.6
2019-02-18T11:38:03.296Z,1020.5
2019-02-18T11:39:03.837Z,1020.5
2019-02-18T11:40:03.412Z,1020.4
2019-02-18T11:41:03.716Z,1020.3
2019-02-18T11:42:03.192Z,1020.4
2019-02-18T11:43:03.465Z,1020.3
2019-02-18T11:44:04.015Z,1020.2
2019-02-18T11:45:03.495Z,1020.2
2019-02-18T11:46:03.030Z,1020.2
2019-02-18T11:47:03.545Z,1020.2
2019-02-18T11:48:03.867Z,1020.2
2019-02-18T11:49:03.233Z,1020.2
2019-02-18T11:50:03.802Z,1020
2019-02-18T11:51:03.507Z,1020
2019-02-18T11:52:03.701Z,1020
2019-02-18T11:53:03.089Z,1020
2019-02-18T11:54:06.147Z,1020
2019-02-18T11:55:02.879Z,1020.1
2019-02-18T11:56:03.713Z,1020.3
2019-02-18T11:57:03.907Z,1020.3
2019-02-18T11:58:03.907Z,1020.1
2019-02-18T11:59:03.539Z,1020.1
2019-02-18T12:00:03.830Z,1019.9
2019-02-18T12:01:03.551Z,1020
2019-02-18T12:02:06.261Z,1020
2019-02-18T12:03:13.370Z,1019.8
2019-02-18T12:04:03.421Z,1019.8
2019-02-18T12:05:02.822Z,1019.7
2019-02-18T12:06:03.658Z,1019.6
2019-02-18T12:07:03.121Z,1019.8
2019-02-18T12:08:03.530Z,1019.7
2019-02-18T12:09:04.937Z,1019.7
2019-02-18T12:10:03.545Z,1019.7
2019-02-18T12:11:04.084Z,1019.7
2019-02-18T12:12:03.485Z,1019.5
2019-02-18T12:13:03.232Z,1019.4
2019-02-18T12:14:03.752Z,1019.5
2019-02-18T12:15:03.225Z,1019.5
2019-02-18T12:16:03.784Z,1019.5
2019-02-18T12:17:03.298Z,1019.5
2019-02-18T12:18:02.991Z,1019.5
2019-02-18T12:19:03.347Z,1019.4
2019-02-18T12:20:03.768Z,1019.5
2019-02-18T12:21:03.031Z,1019.5
2019-02-18T12:22:03.830Z,1019.7
2019-02-18T12:23:04.001Z,1019.7
2019-02-18T12:24:05.337Z,1019.6
2019-02-18T12:25:03.991Z,1019.4
2019-02-18T12:26:03.488Z,1019.5
2019-02-18T12:27:02.990Z,1019.4
2019-02-18T12:28:03.633Z,1019.2
2019-02-18T12:29:04.059Z,1019.3
2019-02-18T12:30:03.553Z,1019.3
2019-02-18T12:31:03.241Z,1019.1